Berkeley Springs, WV (25411)

8:25 AM EDT on August 31, 2015 (GMT -0400)
Coolfont Mountainside | | Change Station
CLOSE
Current Station
Personal Weather Station
Location: Berkeley Springs, WV
Elevation: 1053 ft
Nearby Weather Stations

Elev 1053 ft 39.59 °N, 78.27 °W | Updated 3 minutes ago

Mostly Cloudy
Mostly Cloudy
72.7 °F
Feels Like 71 °F
N
0.0
Wind Variable Wind from West
Gusts 0.0 mph

Today
High -- | Low -- °F
--% Chance of Precip.
Yesterday
High -- | Low -- °F
Precip. -- in
6:39 AM 7:45 PM
Waning Gibbous, 95% visible
Pressure 30.09 in
Visibility 10.0 miles
Clouds Few 12000 ft
Heat Index 71 °F
Dew Point 69 °F
Humidity 87%
Rainfall 0.00 in
Snow Depth Not available.
UV 1 out of 12
Pollen 10.20 out of 12
Air Quality Not available.
Flu Activity Not available.
METAR KMRB 311153Z 00000KT 10SM FEW120 22/18 A3010 RMK AO2 RAB34E45 SLP190 P0000 60000 T02170183 10233 20200 53010
Pressure 30.09 in
Visibility 10.0 miles
Clouds Few 12000 ft
Heat Index 71 °F
Dew Point 69 °F
Humidity 87%
Rainfall 0.00 in
Snow Depth Not available.
UV 1 out of 12
Pollen 10.20 out of 12
Air Quality Not available.
Flu Activity Not available.
METAR KMRB 311153Z 00000KT 10SM FEW120 22/18 A3010 RMK AO2 RAB34E45 SLP190 P0000 60000 T02170183 10233 20200 53010

10-Day Weather Forecast

×

Almanac

Astronomy

Aug. 31, 2015 Rise Set
Actual Time
Civil Twilight
Nautical Twilight
Astronomical Twilight
Moon
Length of Visible Light
Length of Day
Tomorrow will be .
, % of the Moon is Illuminated

Today's Extremes

State Highs State Lows

Community

WunderPhotos

Upload Photos

1,851,222 photos uploaded!

WunderBlogs® & News

Nearby

Air Quality

  Air Quality AQ Index Pollutant
Not available.

Snow Depth

Station Depth Elevation

Earthquake Activity

City Distance Mag. Time & Date
Minimum magnitude displayed is 2.5.

Coastal Water Temperatures

Place Temperature

Stations

Nearby Weather Stations

Station Location Temp. Windchill Dew Point Humidity Wind Precip. Elev Updated Type